Aviation Digital Data Service (ADDS)

Output produced by METARs form (0232 UTC 29 May 2022)
found at http://www.aviationweather.gov/metar/data/
 
METAR text: RJOS 290200Z 05009KT 9999 FEW030 BKN/// 25/12 Q1008
Conditions at: RJOS (TOKUSHIMA(JMSDF/, JP) observed 0200 UTC 29 May 2022
Temperature: 25.0°C (77°F)
Dewpoint: 12.0°C (54°F) [RH = 44%]
Pressure (altimeter): 29.76 inches Hg (1008.0 mb)
Winds: from the NE (50 degrees) at 10 MPH (9 knots; 4.6 m/s)
Visibility: 6 or more miles (10+ km)
Ceiling: at least 12,000 feet AGL
Clouds: few clouds at 3000 feet AGL
Weather: no significant weather observed at this time

METAR text: RJOS 290100Z 04010KT 9999 FEW030 SCT/// 25/12 Q1008
Conditions at: RJOS (TOKUSHIMA(JMSDF/, JP) observed 0100 UTC 29 May 2022
Temperature: 25.0°C (77°F)
Dewpoint: 12.0°C (54°F) [RH = 44%]
Pressure (altimeter): 29.76 inches Hg (1008.0 mb)
Winds: from the NE (40 degrees) at 12 MPH (10 knots; 5.1 m/s)
Visibility: 6 or more miles (10+ km)
Ceiling: at least 12,000 feet AGL
Clouds: few clouds at 3000 feet AGL
Weather: no significant weather observed at this time

METAR text: RJOS 290000Z 07004KT 040V130 9999 FEW030 BKN/// 23/12 Q1008
Conditions at: RJOS (TOKUSHIMA(JMSDF/, JP) observed 0000 UTC 29 May 2022
Temperature: 23.0°C (73°F)
Dewpoint: 12.0°C (54°F) [RH = 50%]
Pressure (altimeter): 29.76 inches Hg (1008.0 mb)
Winds: from the ENE (70 degrees) at 5 MPH (4 knots; 2.1 m/s)
Visibility: 6 or more miles (10+ km)
Ceiling: at least 12,000 feet AGL
Clouds: few clouds at 3000 feet AGL
Weather: no significant weather observed at this time

METAR text: RJOS 282300Z VRB02KT 9999 FEW030 BKN/// 21/11 Q1008
Conditions at: RJOS (TOKUSHIMA(JMSDF/, JP) observed 2300 UTC 28 May 2022
Temperature: 21.0°C (70°F)
Dewpoint: 11.0°C (52°F) [RH = 53%]
Pressure (altimeter): 29.76 inches Hg (1008.0 mb)
Winds: variable direction winds at 2 MPH (2 knots; 1.0 m/s)
Visibility: 6 or more miles (10+ km)
Ceiling: at least 12,000 feet AGL
Clouds: few clouds at 3000 feet AGL
Weather: no significant weather observed at this time

METAR text: RJOS 282200Z 27006KT 230V290 9999 FEW030 BKN/// 19/11 Q1008
Conditions at: RJOS (TOKUSHIMA(JMSDF/, JP) observed 2200 UTC 28 May 2022
Temperature: 19.0°C (66°F)
Dewpoint: 11.0°C (52°F) [RH = 60%]
Pressure (altimeter): 29.76 inches Hg (1008.0 mb)
Winds: from the W (270 degrees) at 7 MPH (6 knots; 3.1 m/s)
Visibility: 6 or more miles (10+ km)
Ceiling: at least 12,000 feet AGL
Clouds: few clouds at 3000 feet AGL
Weather: no significant weather observed at this time

METAR text: RJOS 282100Z 25003KT 9999 FEW030 BKN/// 18/11 Q1008
Conditions at: RJOS (TOKUSHIMA(JMSDF/, JP) observed 2100 UTC 28 May 2022
Temperature: 18.0°C (64°F)
Dewpoint: 11.0°C (52°F) [RH = 64%]
Pressure (altimeter): 29.76 inches Hg (1008.0 mb)
Winds: from the WSW (250 degrees) at 3 MPH (3 knots; 1.5 m/s)
Visibility: 6 or more miles (10+ km)
Ceiling: at least 12,000 feet AGL
Clouds: few clouds at 3000 feet AGL
Weather: no significant weather observed at this time

METAR text: RJOS 282000Z 27004KT 9999 FEW030 BKN/// 18/11 Q1008
Conditions at: RJOS (TOKUSHIMA(JMSDF/, JP) observed 2000 UTC 28 May 2022
Temperature: 18.0°C (64°F)
Dewpoint: 11.0°C (52°F) [RH = 64%]
Pressure (altimeter): 29.76 inches Hg (1008.0 mb)
Winds: from the W (270 degrees) at 5 MPH (4 knots; 2.1 m/s)
Visibility: 6 or more miles (10+ km)
Ceiling: at least 12,000 feet AGL
Clouds: few clouds at 3000 feet AGL
Weather: no significant weather observed at this time

METAR text: RJOS 281900Z 26005KT 9999 FEW030 BKN/// 18/12 Q1007
Conditions at: RJOS (TOKUSHIMA(JMSDF/, JP) observed 1900 UTC 28 May 2022
Temperature: 18.0°C (64°F)
Dewpoint: 12.0°C (54°F) [RH = 68%]
Pressure (altimeter): 29.73 inches Hg (1007.0 mb)
Winds: from the W (260 degrees) at 6 MPH (5 knots; 2.6 m/s)
Visibility: 6 or more miles (10+ km)
Ceiling: at least 12,000 feet AGL
Clouds: few clouds at 3000 feet AGL
Weather: no significant weather observed at this time

METAR text: RJOS 281800Z 29005KT 9999 FEW030 BKN/// 18/12 Q1007
Conditions at: RJOS (TOKUSHIMA(JMSDF/, JP) observed 1800 UTC 28 May 2022
Temperature: 18.0°C (64°F)
Dewpoint: 12.0°C (54°F) [RH = 68%]
Pressure (altimeter): 29.73 inches Hg (1007.0 mb)
Winds: from the WNW (290 degrees) at 6 MPH (5 knots; 2.6 m/s)
Visibility: 6 or more miles (10+ km)
Ceiling: at least 12,000 feet AGL
Clouds: few clouds at 3000 feet AGL
Weather: no significant weather observed at this time

METAR text: RJOS 281700Z 27007KT 9999 FEW030 BKN/// 19/12 Q1007
Conditions at: RJOS (TOKUSHIMA(JMSDF/, JP) observed 1700 UTC 28 May 2022
Temperature: 19.0°C (66°F)
Dewpoint: 12.0°C (54°F) [RH = 64%]
Pressure (altimeter): 29.73 inches Hg (1007.0 mb)
Winds: from the W (270 degrees) at 8 MPH (7 knots; 3.6 m/s)
Visibility: 6 or more miles (10+ km)
Ceiling: at least 12,000 feet AGL
Clouds: few clouds at 3000 feet AGL
Weather: no significant weather observed at this time

METAR text: RJOS 281600Z 29004KT 9999 FEW030 BKN/// 20/12 Q1007
Conditions at: RJOS (TOKUSHIMA(JMSDF/, JP) observed 1600 UTC 28 May 2022
Temperature: 20.0°C (68°F)
Dewpoint: 12.0°C (54°F) [RH = 60%]
Pressure (altimeter): 29.73 inches Hg (1007.0 mb)
Winds: from the WNW (290 degrees) at 5 MPH (4 knots; 2.1 m/s)
Visibility: 6 or more miles (10+ km)
Ceiling: at least 12,000 feet AGL
Clouds: few clouds at 3000 feet AGL
Weather: no significant weather observed at this time

METAR text: RJOS 281500Z VRB01KT 9999 FEW030 BKN/// 21/13 Q1007
Conditions at: RJOS (TOKUSHIMA(JMSDF/, JP) observed 1500 UTC 28 May 2022
Temperature: 21.0°C (70°F)
Dewpoint: 13.0°C (55°F) [RH = 60%]
Pressure (altimeter): 29.73 inches Hg (1007.0 mb)
Winds: variable direction winds at 1 MPH (1 knots; 0.5 m/s)
Visibility: 6 or more miles (10+ km)
Ceiling: at least 12,000 feet AGL
Clouds: few clouds at 3000 feet AGL
Weather: no significant weather observed at this time

METAR text: RJOS 281400Z VRB01KT 9999 FEW030 BKN/// 22/14 Q1007
Conditions at: RJOS (TOKUSHIMA(JMSDF/, JP) observed 1400 UTC 28 May 2022
Temperature: 22.0°C (72°F)
Dewpoint: 14.0°C (57°F) [RH = 60%]
Pressure (altimeter): 29.73 inches Hg (1007.0 mb)
Winds: variable direction winds at 1 MPH (1 knots; 0.5 m/s)
Visibility: 6 or more miles (10+ km)
Ceiling: at least 12,000 feet AGL
Clouds: few clouds at 3000 feet AGL
Weather: no significant weather observed at this time

METAR text: RJOS 281300Z VRB02KT 9999 FEW030 BKN/// 22/16 Q1007
Conditions at: RJOS (TOKUSHIMA(JMSDF/, JP) observed 1300 UTC 28 May 2022
Temperature: 22.0°C (72°F)
Dewpoint: 16.0°C (61°F) [RH = 69%]
Pressure (altimeter): 29.73 inches Hg (1007.0 mb)
Winds: variable direction winds at 2 MPH (2 knots; 1.0 m/s)
Visibility: 6 or more miles (10+ km)
Ceiling: at least 12,000 feet AGL
Clouds: few clouds at 3000 feet AGL
Weather: no significant weather observed at this time

METAR text: RJOS 281200Z VRB01KT 9999 FEW030 BKN/// 23/16 Q1007
Conditions at: RJOS (TOKUSHIMA(JMSDF/, JP) observed 1200 UTC 28 May 2022
Temperature: 23.0°C (73°F)
Dewpoint: 16.0°C (61°F) [RH = 65%]
Pressure (altimeter): 29.73 inches Hg (1007.0 mb)
Winds: variable direction winds at 1 MPH (1 knots; 0.5 m/s)
Visibility: 6 or more miles (10+ km)
Ceiling: at least 12,000 feet AGL
Clouds: few clouds at 3000 feet AGL
Weather: no significant weather observed at this time

METAR text: RJOS 281100Z 16006KT 9999 FEW030 BKN/// 24/16 Q1006
Conditions at: RJOS (TOKUSHIMA(JMSDF/, JP) observed 1100 UTC 28 May 2022
Temperature: 24.0°C (75°F)
Dewpoint: 16.0°C (61°F) [RH = 61%]
Pressure (altimeter): 29.70 inches Hg (1006.0 mb)
Winds: from the SSE (160 degrees) at 7 MPH (6 knots; 3.1 m/s)
Visibility: 6 or more miles (10+ km)
Ceiling: at least 12,000 feet AGL
Clouds: few clouds at 3000 feet AGL
Weather: no significant weather observed at this time

METAR text: RJOS 281000Z 15009KT 9999 FEW030 BKN/// 24/15 Q1005
Conditions at: RJOS (TOKUSHIMA(JMSDF/, JP) observed 1000 UTC 28 May 2022
Temperature: 24.0°C (75°F)
Dewpoint: 15.0°C (59°F) [RH = 57%]
Pressure (altimeter): 29.68 inches Hg (1005.0 mb)
Winds: from the SSE (150 degrees) at 10 MPH (9 knots; 4.6 m/s)
Visibility: 6 or more miles (10+ km)
Ceiling: at least 12,000 feet AGL
Clouds: few clouds at 3000 feet AGL
Weather: no significant weather observed at this time

METAR text: RJOS 280900Z 14009KT 9999 FEW030 BKN/// 25/16 Q1005
Conditions at: RJOS (TOKUSHIMA(JMSDF/, JP) observed 0900 UTC 28 May 2022
Temperature: 25.0°C (77°F)
Dewpoint: 16.0°C (61°F) [RH = 57%]
Pressure (altimeter): 29.68 inches Hg (1005.0 mb)
Winds: from the SE (140 degrees) at 10 MPH (9 knots; 4.6 m/s)
Visibility: 6 or more miles (10+ km)
Ceiling: at least 12,000 feet AGL
Clouds: few clouds at 3000 feet AGL
Weather: no significant weather observed at this time

METAR text: RJOS 280852Z 14010KT 9999 FEW030 BKN/// 25/15 Q1005 RMK 1CU030 A2969
Conditions at: RJOS (TOKUSHIMA(JMSDF/, JP) observed 0852 UTC 28 May 2022
Temperature: 25.0°C (77°F)
Dewpoint: 15.0°C (59°F) [RH = 54%]
Pressure (altimeter): 29.68 inches Hg (1005.0 mb)
Winds: from the SE (140 degrees) at 12 MPH (10 knots; 5.1 m/s)
Visibility: 6 or more miles (10+ km)
Ceiling: at least 12,000 feet AGL
Clouds: few clouds at 3000 feet AGL
Weather: no significant weather observed at this time

METAR text: RJOS 280800Z 28006KT 250V310 9999 FEW030 BKN/// 29/09 Q1005
Conditions at: RJOS (TOKUSHIMA(JMSDF/, JP) observed 0800 UTC 28 May 2022
Temperature: 29.0°C (84°F)
Dewpoint: 9.0°C (48°F) [RH = 29%]
Pressure (altimeter): 29.68 inches Hg (1005.0 mb)
Winds: from the W (280 degrees) at 7 MPH (6 knots; 3.1 m/s)
Visibility: 6 or more miles (10+ km)
Ceiling: at least 12,000 feet AGL
Clouds: few clouds at 3000 feet AGL
Weather: no significant weather observed at this time

METAR text: RJOS 280700Z 31008KT 250V330 9999 FEW030 BKN/// 30/10 Q1005
Conditions at: RJOS (TOKUSHIMA(JMSDF/, JP) observed 0700 UTC 28 May 2022
Temperature: 30.0°C (86°F)
Dewpoint: 10.0°C (50°F) [RH = 29%]
Pressure (altimeter): 29.68 inches Hg (1005.0 mb)
Winds: from the NW (310 degrees) at 9 MPH (8 knots; 4.1 m/s)
Visibility: 6 or more miles (10+ km)
Ceiling: at least 12,000 feet AGL
Clouds: few clouds at 3000 feet AGL
Weather: no significant weather observed at this time

METAR text: RJOS 280600Z 31009KT 270V350 9999 FEW030 BKN/// 30/10 Q1005
Conditions at: RJOS (TOKUSHIMA(JMSDF/, JP) observed 0600 UTC 28 May 2022
Temperature: 30.0°C (86°F)
Dewpoint: 10.0°C (50°F) [RH = 29%]
Pressure (altimeter): 29.68 inches Hg (1005.0 mb)
Winds: from the NW (310 degrees) at 10 MPH (9 knots; 4.6 m/s)
Visibility: 6 or more miles (10+ km)
Ceiling: at least 12,000 feet AGL
Clouds: few clouds at 3000 feet AGL
Weather: no significant weather observed at this time

METAR text: RJOS 280500Z 32012KT 270V360 9999 FEW030 BKN/// 30/10 Q1005
Conditions at: RJOS (TOKUSHIMA(JMSDF/, JP) observed 0500 UTC 28 May 2022
Temperature: 30.0°C (86°F)
Dewpoint: 10.0°C (50°F) [RH = 29%]
Pressure (altimeter): 29.68 inches Hg (1005.0 mb)
Winds: from the NW (320 degrees) at 14 MPH (12 knots; 6.2 m/s)
Visibility: 6 or more miles (10+ km)
Ceiling: at least 12,000 feet AGL
Clouds: few clouds at 3000 feet AGL
Weather: no significant weather observed at this time

METAR text: RJOS 280400Z 33012KT 9999 FEW030 BKN/// 29/10 Q1005
Conditions at: RJOS (TOKUSHIMA(JMSDF/, JP) observed 0400 UTC 28 May 2022
Temperature: 29.0°C (84°F)
Dewpoint: 10.0°C (50°F) [RH = 31%]
Pressure (altimeter): 29.68 inches Hg (1005.0 mb)
Winds: from the NNW (330 degrees) at 14 MPH (12 knots; 6.2 m/s)
Visibility: 6 or more miles (10+ km)
Ceiling: at least 12,000 feet AGL
Clouds: few clouds at 3000 feet AGL
Weather: no significant weather observed at this time

METAR text: RJOS 280300Z 34011KT 9999 FEW030 BKN/// 29/12 Q1005
Conditions at: RJOS (TOKUSHIMA(JMSDF/, JP) observed 0300 UTC 28 May 2022
Temperature: 29.0°C (84°F)
Dewpoint: 12.0°C (54°F) [RH = 35%]
Pressure (altimeter): 29.68 inches Hg (1005.0 mb)
Winds: from the NNW (340 degrees) at 13 MPH (11 knots; 5.7 m/s)
Visibility: 6 or more miles (10+ km)
Ceiling: at least 12,000 feet AGL
Clouds: few clouds at 3000 feet AGL
Weather: no significant weather observed at this time

METAR text: RJOS 280200Z 31008KT 280V010 9999 FEW030 BKN/// 28/13 Q1005
Conditions at: RJOS (TOKUSHIMA(JMSDF/, JP) observed 0200 UTC 28 May 2022
Temperature: 28.0°C (82°F)
Dewpoint: 13.0°C (55°F) [RH = 40%]
Pressure (altimeter): 29.68 inches Hg (1005.0 mb)
Winds: from the NW (310 degrees) at 9 MPH (8 knots; 4.1 m/s)
Visibility: 6 or more miles (10+ km)
Ceiling: at least 12,000 feet AGL
Clouds: few clouds at 3000 feet AGL
Weather: no significant weather observed at this time

METAR text: RJOS 280100Z 30011KT 280V340 9999 FEW030 BKN/// 26/11 Q1006
Conditions at: RJOS (TOKUSHIMA(JMSDF/, JP) observed 0100 UTC 28 May 2022
Temperature: 26.0°C (79°F)
Dewpoint: 11.0°C (52°F) [RH = 39%]
Pressure (altimeter): 29.70 inches Hg (1006.0 mb)
Winds: from the WNW (300 degrees) at 13 MPH (11 knots; 5.7 m/s)
Visibility: 6 or more miles (10+ km)
Ceiling: at least 12,000 feet AGL
Clouds: few clouds at 3000 feet AGL
Weather: no significant weather observed at this time

METAR text: RJOS 280000Z 32007G17KT 9999 FEW030 BKN/// 26/11 Q1005
Conditions at: RJOS (TOKUSHIMA(JMSDF/, JP) observed 0000 UTC 28 May 2022
Temperature: 26.0°C (79°F)
Dewpoint: 11.0°C (52°F) [RH = 39%]
Pressure (altimeter): 29.68 inches Hg (1005.0 mb)
Winds: from the NW (320 degrees) at 8 MPH (7 knots; 3.6 m/s)
gusting to 20 MPH (17 knots; 8.7 m/s)
Visibility: 6 or more miles (10+ km)
Ceiling: at least 12,000 feet AGL
Clouds: few clouds at 3000 feet AGL
Weather: no significant weather observed at this time

METAR text: RJOS 272300Z 26009KT 9999 FEW030 24/13 Q1005
Conditions at: RJOS (TOKUSHIMA(JMSDF/, JP) observed 2300 UTC 27 May 2022
Temperature: 24.0°C (75°F)
Dewpoint: 13.0°C (55°F) [RH = 50%]
Pressure (altimeter): 29.68 inches Hg (1005.0 mb)
Winds: from the W (260 degrees) at 10 MPH (9 knots; 4.6 m/s)
Visibility: 6 or more miles (10+ km)
Ceiling: at least 12,000 feet AGL
Clouds: few clouds at 3000 feet AGL
Weather: no significant weather observed at this time

METAR text: RJOS 272200Z VRB02KT 9999 FEW030 21/12 Q1004
Conditions at: RJOS (TOKUSHIMA(JMSDF/, JP) observed 2200 UTC 27 May 2022
Temperature: 21.0°C (70°F)
Dewpoint: 12.0°C (54°F) [RH = 56%]
Pressure (altimeter): 29.65 inches Hg (1004.0 mb)
Winds: variable direction winds at 2 MPH (2 knots; 1.0 m/s)
Visibility: 6 or more miles (10+ km)
Ceiling: at least 12,000 feet AGL
Clouds: few clouds at 3000 feet AGL
Weather: no significant weather observed at this time

METAR text: RJOS 272100Z VRB02KT 9999 FEW030 19/13 Q1004
Conditions at: RJOS (TOKUSHIMA(JMSDF/, JP) observed 2100 UTC 27 May 2022
Temperature: 19.0°C (66°F)
Dewpoint: 13.0°C (55°F) [RH = 68%]
Pressure (altimeter): 29.65 inches Hg (1004.0 mb)
Winds: variable direction winds at 2 MPH (2 knots; 1.0 m/s)
Visibility: 6 or more miles (10+ km)
Ceiling: at least 12,000 feet AGL
Clouds: few clouds at 3000 feet AGL
Weather: no significant weather observed at this time

METAR text: RJOS 272000Z 33007KT 280V010 9999 FEW030 20/11 Q1003
Conditions at: RJOS (TOKUSHIMA(JMSDF/, JP) observed 2000 UTC 27 May 2022
Temperature: 20.0°C (68°F)
Dewpoint: 11.0°C (52°F) [RH = 56%]
Pressure (altimeter): 29.62 inches Hg (1003.0 mb)
Winds: from the NNW (330 degrees) at 8 MPH (7 knots; 3.6 m/s)
Visibility: 6 or more miles (10+ km)
Ceiling: at least 12,000 feet AGL
Clouds: few clouds at 3000 feet AGL
Weather: no significant weather observed at this time

METAR text: RJOS 271900Z 28008KT 9999 FEW030 21/10 Q1003
Conditions at: RJOS (TOKUSHIMA(JMSDF/, JP) observed 1900 UTC 27 May 2022
Temperature: 21.0°C (70°F)
Dewpoint: 10.0°C (50°F) [RH = 49%]
Pressure (altimeter): 29.62 inches Hg (1003.0 mb)
Winds: from the W (280 degrees) at 9 MPH (8 knots; 4.1 m/s)
Visibility: 6 or more miles (10+ km)
Ceiling: at least 12,000 feet AGL
Clouds: few clouds at 3000 feet AGL
Weather: no significant weather observed at this time

METAR text: RJOS 271800Z 31004KT 280V340 9999 FEW030 19/11 Q1002
Conditions at: RJOS (TOKUSHIMA(JMSDF/, JP) observed 1800 UTC 27 May 2022
Temperature: 19.0°C (66°F)
Dewpoint: 11.0°C (52°F) [RH = 60%]
Pressure (altimeter): 29.59 inches Hg (1002.0 mb)
Winds: from the NW (310 degrees) at 5 MPH (4 knots; 2.1 m/s)
Visibility: 6 or more miles (10+ km)
Ceiling: at least 12,000 feet AGL
Clouds: few clouds at 3000 feet AGL
Weather: no significant weather observed at this time

METAR text: RJOS 271700Z 28005KT 250V310 9999 FEW030 20/10 Q1002
Conditions at: RJOS (TOKUSHIMA(JMSDF/, JP) observed 1700 UTC 27 May 2022
Temperature: 20.0°C (68°F)
Dewpoint: 10.0°C (50°F) [RH = 53%]
Pressure (altimeter): 29.59 inches Hg (1002.0 mb)
Winds: from the W (280 degrees) at 6 MPH (5 knots; 2.6 m/s)
Visibility: 6 or more miles (10+ km)
Ceiling: at least 12,000 feet AGL
Clouds: few clouds at 3000 feet AGL
Weather: no significant weather observed at this time

METAR text: RJOS 271600Z 26007KT 9999 FEW030 21/10 Q1002
Conditions at: RJOS (TOKUSHIMA(JMSDF/, JP) observed 1600 UTC 27 May 2022
Temperature: 21.0°C (70°F)
Dewpoint: 10.0°C (50°F) [RH = 49%]
Pressure (altimeter): 29.59 inches Hg (1002.0 mb)
Winds: from the W (260 degrees) at 8 MPH (7 knots; 3.6 m/s)
Visibility: 6 or more miles (10+ km)
Ceiling: at least 12,000 feet AGL
Clouds: few clouds at 3000 feet AGL
Weather: no significant weather observed at this time

METAR text: RJOS 271500Z 26010KT 9999 FEW030 21/10 Q1002
Conditions at: RJOS (TOKUSHIMA(JMSDF/, JP) observed 1500 UTC 27 May 2022
Temperature: 21.0°C (70°F)
Dewpoint: 10.0°C (50°F) [RH = 49%]
Pressure (altimeter): 29.59 inches Hg (1002.0 mb)
Winds: from the W (260 degrees) at 12 MPH (10 knots; 5.1 m/s)
Visibility: 6 or more miles (10+ km)
Ceiling: at least 12,000 feet AGL
Clouds: few clouds at 3000 feet AGL
Weather: no significant weather observed at this time